Home > Products > Valid Products > TAF

000
FTUS43 KLMK 021722
TAFSDF
TAF
KSDF 021722Z 0218/0324 27005KT P6SM SCT050
     FM030100 VRB03KT P6SM SCT250
     FM031000 VRB03KT 5SM HZ SCT250
     FM031500 VRB03KT P6SM SCT050=



000
FTUS43 KLMK 021722
TAFBWG
TAF
KBWG 021722Z 0218/0318 VRB03KT P6SM SCT050
     FM030600 00000KT 4SM BR SCT250
     FM031400 06004KT P6SM SCT250=



000
FTUS43 KLMK 021722
TAFLEX
TAF
KLEX 021722Z 0218/0318 28005KT P6SM SCT050
     FM030900 VRB03KT 5SM BR SCT250
     FM031400 35005KT P6SM SCT250=



000
FTUS43 KLMK 021722
TAFBWG
TAF
KBWG 021722Z 0218/0318 VRB03KT P6SM SCT050
     FM030600 00000KT 4SM BR SCT250
     FM031400 06004KT P6SM SCT250=



000
FTUS43 KLMK 021722
TAFSDF
TAF
KSDF 021722Z 0218/0324 27005KT P6SM SCT050
     FM030100 VRB03KT P6SM SCT250
     FM031000 VRB03KT 5SM HZ SCT250
     FM031500 VRB03KT P6SM SCT050=



000
FTUS43 KLMK 021722
TAFLEX
TAF
KLEX 021722Z 0218/0318 28005KT P6SM SCT050
     FM030900 VRB03KT 5SM BR SCT250
     FM031400 35005KT P6SM SCT250=



000
FTUS43 KLMK 021158 CCA
TAFBWG
TAF COR
KBWG 021158Z 0212/0312 00000KT 4SM BR BKN250
      TEMPO 0212/0213 2SM BR BKN002
     FM021400 VRB03KT P6SM SCT040 BKN250
     FM030600 00000KT 4SM BR SCT250=



000
FTUS43 KLMK 021158 CCA
TAFBWG
TAF COR
KBWG 021158Z 0212/0312 00000KT 4SM BR BKN250
      TEMPO 0212/0213 2SM BR BKN002
     FM021400 VRB03KT P6SM SCT040 BKN250
     FM030600 00000KT 4SM BR SCT250=



000
FTUS43 KLMK 021121
TAFSDF
TAF
KSDF 021121Z 0212/0318 VRB03KT P6SM BKN250
     FM021500 29007KT P6SM SCT050 BKN250
     FM030100 VRB03KT P6SM SCT250=



000
FTUS43 KLMK 021121
TAFBWG
TAF
KBWG 021121Z 0212/0312 00000KT 4SM BR BKN250
     FM021400 VRB03KT P6SM SCT040 BKN250
     FM030600 00000KT 4SM BR SCT250=



000
FTUS43 KLMK 021121
TAFLEX
TAF
KLEX 021121Z 0212/0312 30005KT P6SM SCT050
     FM030900 VRB03KT 5SM BR SCT250=



000
FTUS43 KLMK 021121
TAFLEX
TAF
KLEX 021121Z 0212/0312 30005KT P6SM SCT050
     FM030900 VRB03KT 5SM BR SCT250=



000
FTUS43 KLMK 021121
TAFSDF
TAF
KSDF 021121Z 0212/0318 VRB03KT P6SM BKN250
     FM021500 29007KT P6SM SCT050 BKN250
     FM030100 VRB03KT P6SM SCT250=



000
FTUS43 KLMK 021121
TAFBWG
TAF
KBWG 021121Z 0212/0312 00000KT 4SM BR BKN250
     FM021400 VRB03KT P6SM SCT040 BKN250
     FM030600 00000KT 4SM BR SCT250=



000
FTUS43 KLMK 020526
TAFLEX
TAF
KLEX 020526Z 0206/0306 00000KT P6SM BKN250
     FM020900 00000KT 5SM BR SCT250
      TEMPO 0209/0212 2SM BR
     FM021300 32005KT P6SM SCT050=



000
FTUS43 KLMK 020526
TAFBWG
TAF
KBWG 020526Z 0206/0306 VRB03KT P6SM BKN250
     FM020700 00000KT 3SM BR SCT250
     FM021030 00000KT 1SM BR SCT250
      TEMPO 0211/0212 1/2SM FG SCT003
     FM021230 00000KT 3SM BR SCT250=



000
FTUS43 KLMK 020526
TAFBWG
TAF
KBWG 020526Z 0206/0306 VRB03KT P6SM BKN250
     FM020700 00000KT 3SM BR SCT250
     FM021030 00000KT 1SM BR SCT250
      TEMPO 0211/0212 1/2SM FG SCT003
     FM021230 00000KT 3SM BR SCT250=



000
FTUS43 KLMK 020526
TAFSDF
TAF
KSDF 020526Z 0206/0312 VRB03KT P6SM BKN250
      TEMPO 0208/0212 5SM BR
     FM021500 29005KT P6SM SCT050=



000
FTUS43 KLMK 020526
TAFSDF
TAF
KSDF 020526Z 0206/0312 VRB03KT P6SM BKN250
      TEMPO 0208/0212 5SM BR
     FM021500 29005KT P6SM SCT050=



000
FTUS43 KLMK 020526
TAFLEX
TAF
KLEX 020526Z 0206/0306 00000KT P6SM BKN250
     FM020900 00000KT 5SM BR SCT250
      TEMPO 0209/0212 2SM BR
     FM021300 32005KT P6SM SCT050=



000
FTUS43 KLMK 012320
TAFSDF
TAF
KSDF 012320Z 0200/0306 VRB03KT P6SM BKN250
     FM021500 29005KT P6SM SCT050=



000
FTUS43 KLMK 012320
TAFBWG
TAF
KBWG 012320Z 0200/0224 VRB03KT P6SM BKN250
     FM020700 00000KT 3SM BR SCT250
     FM021030 00000KT 1SM BR SCT250
      TEMPO 0211/0212 1/2SM FG SCT003
     FM021230 00000KT 3SM BR SCT250
     FM021330 07004KT P6SM SCT050=



000
FTUS43 KLMK 012320
TAFLEX
TAF
KLEX 012320Z 0200/0224 00000KT P6SM BKN250
     FM020900 00000KT 5SM BR SCT250
     FM021300 32005KT P6SM SCT050=



000
FTUS43 KLMK 011721
TAFBWG
TAF
KBWG 011721Z 0118/0218 VRB04KT P6SM FEW045 SCT250
     FM020700 00000KT 4SM BR FEW250
      TEMPO 0209/0213 2SM BR FEW250
     FM021300 30004KT P6SM FEW040=



000
FTUS43 KLMK 011721
TAFSDF
TAF
KSDF 011721Z 0118/0224 26005KT P6SM SCT050
     FM020000 31003KT P6SM SKC
     FM021100 00000KT 6SM HZ SKC
     FM021300 30004KT P6SM SCT040=



000
FTUS43 KLMK 011721
TAFLEX
TAF
KLEX 011721Z 0118/0218 VRB04KT P6SM SCT045
     FM020000 VRB03KT P6SM SKC
     FM020900 10003KT 5SM BR SKC
     FM021300 30004KT P6SM SCT040=



000
FTUS43 KLMK 011721
TAFBWG
TAF
KBWG 011721Z 0118/0218 VRB04KT P6SM FEW045 SCT250
     FM020700 00000KT 4SM BR FEW250
      TEMPO 0209/0213 2SM BR FEW250
     FM021300 30004KT P6SM FEW040=



000
FTUS43 KLMK 011721
TAFSDF
TAF
KSDF 011721Z 0118/0224 26005KT P6SM SCT050
     FM020000 31003KT P6SM SKC
     FM021100 00000KT 6SM HZ SKC
     FM021300 30004KT P6SM SCT040=



000
FTUS43 KLMK 011721
TAFLEX
TAF
KLEX 011721Z 0118/0218 VRB04KT P6SM SCT045
     FM020000 VRB03KT P6SM SKC
     FM020900 10003KT 5SM BR SKC
     FM021300 30004KT P6SM SCT040=



000
FTUS43 KLMK 011134
TAFSDF
TAF
KSDF 011134Z 0112/0218 VRB03KT 6SM HZ FEW250
     FM011500 25005KT P6SM SCT050
     FM020100 VRB03KT P6SM SCT250=



000
FTUS43 KLMK 011134
TAFLEX
TAF
KLEX 011134Z 0112/0212 00000KT P6SM FEW250
     FM011500 VRB04KT P6SM SCT050
     FM020100 VRB03KT P6SM SCT250=



000
FTUS43 KLMK 011134
TAFBWG
TAF
KBWG 011134Z 0112/0212 VRB04KT 3SM BR SCT250
     FM011300 VRB04KT P6SM SCT250
     FM020900 00000KT 4SM BR FEW250=



000
FTUS43 KLMK 011049 AAB
TAFBWG
TAF AMD
KBWG 011049Z 0111/0206 00000KT 4SM BR SKC
      TEMPO 0111/0112 2SM BR SKC
     FM011300 VRB04KT P6SM SCT250=



000
FTUS43 KLMK 011049 AAB
TAFBWG
TAF AMD
KBWG 011049Z 0111/0206 00000KT 4SM BR SKC
      TEMPO 0111/0112 2SM BR SKC
     FM011300 VRB04KT P6SM SCT250=



000
FTUS43 KLMK 010759 AAA
TAFBWG
TAF AMD
KBWG 010759Z 0108/0206 00000KT 4SM BR SKC
      TEMPO 0109/0111 2SM BR SKC
     FM011200 VRB04KT P6SM SCT250=



000
FTUS43 KLMK 010520
TAFLEX
TAF
KLEX 010520Z 0106/0206 00000KT P6SM FEW250
     FM011500 VRB04KT P6SM SCT050
     FM020100 VRB03KT P6SM SCT250=



000
FTUS43 KLMK 010520
TAFLEX
TAF
KLEX 010520Z 0106/0206 00000KT P6SM FEW250
     FM011500 VRB04KT P6SM SCT050
     FM020100 VRB03KT P6SM SCT250=



000
FTUS43 KLMK 010520
TAFBWG
TAF
KBWG 010520Z 0106/0206 00000KT P6SM FEW250
     FM010900 00000KT 3SM BR FEW250
     FM011300 VRB04KT P6SM SCT250=



000
FTUS43 KLMK 010520
TAFSDF
TAF
KSDF 010520Z 0106/0212 VRB03KT P6SM FEW250
     FM011500 25005KT P6SM SCT050
     FM020100 VRB03KT P6SM SCT250=



000
FTUS43 KLMK 010520
TAFBWG
TAF
KBWG 010520Z 0106/0206 00000KT P6SM FEW250
     FM010900 00000KT 3SM BR FEW250
     FM011300 VRB04KT P6SM SCT250=



000
FTUS43 KLMK 010520
TAFSDF
TAF
KSDF 010520Z 0106/0212 VRB03KT P6SM FEW250
     FM011500 25005KT P6SM SCT050
     FM020100 VRB03KT P6SM SCT250=



000
FTUS43 KLMK 312320
TAFSDF
TAF
KSDF 312320Z 0100/0206 VRB03KT P6SM FEW250
     FM011500 25005KT P6SM SCT050
     FM020000 VRB03KT P6SM SCT250=



000
FTUS43 KLMK 312320
TAFLEX
TAF
KLEX 312320Z 0100/0124 VRB04KT P6SM FEW250
     FM011500 VRB04KT P6SM SCT050=



000
FTUS43 KLMK 312320
TAFBWG
TAF
KBWG 312320Z 0100/0124 00000KT P6SM FEW250
     FM010900 00000KT 3SM BR SCT250
     FM011300 VRB04KT P6SM SCT250=



000
FTUS43 KLMK 311720
TAFSDF
TAF
KSDF 311720Z 3118/0124 VRB05KT P6SM FEW040=



000
FTUS43 KLMK 311720
TAFLEX
TAF
KLEX 311720Z 3118/0118 VRB04KT P6SM FEW040 SCT250=



000
FTUS43 KLMK 311720
TAFBWG
TAF
KBWG 311720Z 3118/0118 VRB03KT P6SM FEW040 SCT250
      TEMPO 0109/0113 3SM BR=



000
FTUS43 KLMK 311720
TAFLEX
TAF
KLEX 311720Z 3118/0118 VRB04KT P6SM FEW040 SCT250=



000
FTUS43 KLMK 311720
TAFSDF
TAF
KSDF 311720Z 3118/0124 VRB05KT P6SM FEW040=



000
FTUS43 KLMK 311720
TAFBWG
TAF
KBWG 311720Z 3118/0118 VRB03KT P6SM FEW040 SCT250
      TEMPO 0109/0113 3SM BR=



000
FTUS43 KLMK 311121
TAFSDF
TAF
KSDF 311121Z 3112/0118 14003KT P6SM SCT100
     FM311500 23004KT P6SM SCT040
     FM010300 VRB03KT P6SM FEW250=



000
FTUS43 KLMK 311121
TAFSDF
TAF
KSDF 311121Z 3112/0118 14003KT P6SM SCT100
     FM311500 23004KT P6SM SCT040
     FM010300 VRB03KT P6SM FEW250=



000
FTUS43 KLMK 311121
TAFLEX
TAF
KLEX 311121Z 3112/0112 00000KT P6SM BKN100
     FM311400 23004KT P6SM SCT040 SCT100
     FM010300 VRB03KT P6SM FEW250=



000
FTUS43 KLMK 311121
TAFBWG
TAF
KBWG 311121Z 3112/0112 00000KT 5SM BR FEW100
      TEMPO 3112/3113 1SM BR
     FM311300 27004KT P6SM SCT035
     FM010300 00000KT P6SM FEW250=



000
FTUS43 KLMK 311121
TAFLEX
TAF
KLEX 311121Z 3112/0112 00000KT P6SM BKN100
     FM311400 23004KT P6SM SCT040 SCT100
     FM010300 VRB03KT P6SM FEW250=



000
FTUS43 KLMK 311121
TAFBWG
TAF
KBWG 311121Z 3112/0112 00000KT 5SM BR FEW100
      TEMPO 3112/3113 1SM BR
     FM311300 27004KT P6SM SCT035
     FM010300 00000KT P6SM FEW250=



000
FTUS43 KLMK 310520
TAFBWG
TAF
KBWG 310520Z 3106/0106 00000KT P6SM SCT100
     FM310900 00000KT 3SM BR FEW100
      TEMPO 3109/3112 1SM BR
     FM311300 27004KT P6SM SCT035
     FM010300 00000KT P6SM FEW250=



000
FTUS43 KLMK 310520
TAFBWG
TAF
KBWG 310520Z 3106/0106 00000KT P6SM SCT100
     FM310900 00000KT 3SM BR FEW100
      TEMPO 3109/3112 1SM BR
     FM311300 27004KT P6SM SCT035
     FM010300 00000KT P6SM FEW250=



000
FTUS43 KLMK 310520
TAFSDF
TAF
KSDF 310520Z 3106/0112 14003KT P6SM SCT100
     FM311500 23004KT P6SM SCT040
     FM010300 VRB03KT P6SM FEW250=



000
FTUS43 KLMK 310520
TAFSDF
TAF
KSDF 310520Z 3106/0112 14003KT P6SM SCT100
     FM311500 23004KT P6SM SCT040
     FM010300 VRB03KT P6SM FEW250=



000
FTUS43 KLMK 310520
TAFLEX
TAF
KLEX 310520Z 3106/0106 17004KT P6SM SCT100
     FM310900 00000KT 4SM BR FEW100
     FM311300 23004KT P6SM SCT040
     FM010300 VRB03KT P6SM FEW250=



000
FTUS43 KLMK 310520
TAFLEX
TAF
KLEX 310520Z 3106/0106 17004KT P6SM SCT100
     FM310900 00000KT 4SM BR FEW100
     FM311300 23004KT P6SM SCT040
     FM010300 VRB03KT P6SM FEW250=



000
FTUS43 KLMK 302327
TAFLEX
TAF
KLEX 302327Z 3100/3124 18004KT P6SM SCT100
     FM310900 00000KT 4SM BR FEW100
     FM311300 VRB04KT P6SM SCT040=



000
FTUS43 KLMK 302327
TAFSDF
TAF
KSDF 302327Z 3100/0106 18003KT P6SM SCT100
     FM311500 VRB04KT P6SM SCT040=



000
FTUS43 KLMK 302327
TAFBWG
TAF
KBWG 302327Z 3100/3124 VRB03KT P6SM SCT100
     FM310900 00000KT 3SM BR FEW100
     FM311300 VRB04KT P6SM SCT035=



000
FTUS43 KLMK 302327
TAFSDF
TAF
KSDF 302327Z 3100/0106 18003KT P6SM SCT100
     FM311500 VRB04KT P6SM SCT040=



000
FTUS43 KLMK 302327
TAFBWG
TAF
KBWG 302327Z 3100/3124 VRB03KT P6SM SCT100
     FM310900 00000KT 3SM BR FEW100
     FM311300 VRB04KT P6SM SCT035=



000
FTUS43 KLMK 302327
TAFLEX
TAF
KLEX 302327Z 3100/3124 18004KT P6SM SCT100
     FM310900 00000KT 4SM BR FEW100
     FM311300 VRB04KT P6SM SCT040=



000
FTUS43 KLMK 302301 AAB
TAFLEX
TAF AMD
KLEX 302301Z 3023/3118 22007KT P6SM VCSH BKN035
     FM310100 18004KT P6SM SCT080 SCT150
     FM310900 VRB03KT 4SM BR SCT100
     FM311300 VRB04KT P6SM SCT035 SCT100=



000
FTUS43 KLMK 302031 AAB
TAFSDF
TAF AMD
KSDF 302031Z 3021/3124 19007KT P6SM VCTS BKN035CB
     FM310100 19004KT P6SM SCT080 SCT150
     FM311100 VRB03KT 6SM BR SCT100
     FM311300 23004KT P6SM SCT040 SCT100=



000
FTUS43 KLMK 301952 AAA
TAFLEX
TAF AMD
KLEX 301952Z 3020/3118 22007KT P6SM VCSH BKN035 BKN150
      TEMPO 3020/3024 3SM -TSRA BR BKN035CB
     FM310100 18004KT P6SM SCT080 SCT150
     FM310900 VRB03KT 4SM BR SCT100
     FM311300 VRB04KT P6SM SCT035 SCT100=



000
FTUS43 KLMK 301945 AAA
TAFSDF
TAF AMD
KSDF 301945Z 3020/3124 22007KT P6SM VCTS BKN035CB BKN150
      TEMPO 3020/3023 3SM -TSRA BR BKN035CB
     FM310100 19004KT P6SM SCT080 SCT150
     FM311100 VRB03KT 6SM BR SCT100
     FM311300 23004KT P6SM SCT040 SCT100=



000
FTUS43 KLMK 301945 AAA
TAFSDF
TAF AMD
KSDF 301945Z 3020/3124 22007KT P6SM VCTS BKN035CB BKN150
      TEMPO 3020/3023 3SM -TSRA BR BKN035CB
     FM310100 19004KT P6SM SCT080 SCT150
     FM311100 VRB03KT 6SM BR SCT100
     FM311300 23004KT P6SM SCT040 SCT100=



    US Dept of Commerce
    National Oceanic and Atmospheric Administration
    National Weather Service
    1325 East West Highway
    Silver Spring, MD 20910
    Page Author: NWS Internet Services Team
Disclaimer
Information Quality
Credits
Glossary
Privacy Policy
Freedom of Information Act (FOIA)
About Us
Career Opportunities